Terminal Aerodrome Forecast
Issued by NWS

Home | Current Version | Previous Version | Text Only | Print | Product List | Glossary On
Versions: 1 2 3 4 5 6 7 8 9 10 11 12 13 14 15 16 17 18 19 20 21 22 23 24 25 26 27 28 29 30 31 32 33 34
659
FTUS43 KLOT 190241 AAA
TAFMDW
TAF AMD
KMDW 190241Z 1903/1924 22009KT 6SM BR BKN010
     FM190400 21007KT 3SM BR SCT009
     FM190800 21006KT 1SM BR SCT006
     FM191500 16008KT 6SM BR SCT015 BKN100
     FM192000 10010KT P6SM OVC035=

USA.gov is the U.S. government's official web portal to all federal, state and local government web resources and services.